Time;durP1;ratioP1;P1;durP2;ratioP2;P2;SDS_P1;SDS_P2;PMS_P1;PMS_P2;Temp;Humidity;BMP_temperature;BMP_pressure;BME280_temperature;BME280_humidity;BME280_pressure;Samples;Min_cycle;Max_cycle;Signal;HPM_P1;HPM_P2
2022/09/08 00:02:17;;;;;;;11.10;4.37;;;;;;;18.49;79.64;100804.16;5037021;28;20120;-85
2022/09/08 00:04:43;;;;;;;10.07;4.37;;;;;;;18.38;81.80;100775.84;5036610;28;20047;-87
2022/09/08 00:07:09;;;;;;;11.47;4.30;;;;;;;18.29;82.39;100774.72;5001655;28;20461;-90
2022/09/08 00:09:35;;;;;;;10.33;4.70;;;;;;;18.22;84.46;100769.47;5041672;28;20091;-94
2022/09/08 00:12:02;;;;;;;8.60;4.07;;;;;;;18.14;84.75;100759.00;5025118;28;20231;-92
2022/09/08 00:14:30;;;;;;;10.80;4.60;;;;;;;18.07;85.02;100769.34;5041811;28;20235;-93
2022/09/08 00:16:56;;;;;;;9.43;4.63;;;;;;;17.99;86.29;100767.09;5039608;28;20483;-92
2022/09/08 00:19:22;;;;;;;11.27;4.73;;;;;;;17.92;86.23;100758.28;5039976;28;20311;-91
2022/09/08 00:21:47;;;;;;;11.00;5.77;;;;;;;17.87;86.87;100768.09;5020444;28;20221;-90
2022/09/08 00:24:12;;;;;;;10.40;5.30;;;;;;;17.78;87.30;100763.38;5037590;28;20055;-88
2022/09/08 00:26:38;;;;;;;11.97;5.60;;;;;;;17.59;89.86;100771.16;5038479;28;20530;-91
2022/09/08 00:29:03;;;;;;;11.93;6.00;;;;;;;17.41;92.82;100786.03;5016758;28;20043;-90
2022/09/08 00:31:29;;;;;;;13.87;6.40;;;;;;;17.32;94.75;100780.22;5015100;28;20031;-87
2022/09/08 00:33:54;;;;;;;12.57;6.50;;;;;;;17.23;95.24;100782.59;5037503;28;20041;-89
2022/09/08 00:36:20;;;;;;;14.63;7.57;;;;;;;17.02;99.21;100776.06;5036124;28;20353;-91
2022/09/08 00:38:50;;;;;;;14.47;7.33;;;;;;;16.95;100.00;100768.06;5038035;28;20488;-90
2022/09/08 00:41:17;;;;;;;10.37;6.00;;;;;;;16.87;99.74;100771.22;5016525;28;20051;-91
2022/09/08 00:43:45;;;;;;;12.37;6.23;;;;;;;16.76;99.92;100772.19;5003359;28;20088;-93
2022/09/08 00:46:14;;;;;;;11.80;5.70;;;;;;;16.62;100.00;100774.44;5036837;28;20055;-91
2022/09/08 00:49:05;;;;;;;12.37;5.80;;;;;;;16.54;100.00;100775.75;5036357;28;20032;-91
2022/09/08 00:51:32;;;;;;;12.67;6.17;;;;;;;16.53;100.00;100782.28;5024879;28;20041;-86
2022/09/08 00:53:58;;;;;;;12.80;5.83;;;;;;;16.51;100.00;100768.06;5036408;28;20170;-86
2022/09/08 00:56:27;;;;;;;13.60;5.13;;;;;;;16.45;100.00;100763.59;5035783;28;20041;-88
2022/09/08 00:58:54;;;;;;;11.93;5.17;;;;;;;16.44;100.00;100753.72;5036835;28;20657;-85
2022/09/08 01:01:19;;;;;;;15.33;5.70;;;;;;;16.43;100.00;100733.75;5035941;28;20036;-84
2022/09/08 01:03:45;;;;;;;11.53;5.57;;;;;;;16.41;100.00;100737.81;5036466;28;20029;-84
2022/09/08 01:14:56;;;;;;;12.60;6.60;;;;;;;16.33;100.00;100723.53;5035772;28;20075;-87
2022/09/08 01:17:27;;;;;;;13.23;6.87;;;;;;;16.28;100.00;100730.81;5016794;28;20129;-85
2022/09/08 01:19:54;;;;;;;12.63;6.23;;;;;;;16.23;100.00;100723.38;5017493;28;20076;-85
2022/09/08 01:22:26;;;;;;;15.03;7.30;;;;;;;16.15;100.00;100716.44;5035402;28;20033;-84
2022/09/08 01:25:20;;;;;;;16.63;7.73;;;;;;;16.15;100.00;100721.88;5035854;28;20048;-83
2022/09/08 01:27:51;;;;;;;11.80;6.87;;;;;;;16.15;100.00;100718.34;5014360;28;20773;-83
2022/09/08 01:30:16;;;;;;;16.07;7.23;;;;;;;16.11;100.00;100709.00;5034790;28;20140;-83
2022/09/08 01:32:44;;;;;;;14.67;7.13;;;;;;;16.02;100.00;100708.63;5034275;28;20055;-83
2022/09/08 01:35:10;;;;;;;14.07;7.30;;;;;;;16.04;100.00;100704.53;5035405;28;20028;-83
2022/09/08 01:37:35;;;;;;;12.47;6.77;;;;;;;15.99;100.00;100685.34;5035399;28;20111;-82
2022/09/08 01:40:03;;;;;;;13.87;6.17;;;;;;;16.06;100.00;100687.06;5034833;28;20366;-82
2022/09/08 01:42:28;;;;;;;13.67;5.93;;;;;;;16.09;100.00;100673.72;5012877;28;20033;-83
2022/09/08 01:44:54;;;;;;;11.93;6.33;;;;;;;16.06;100.00;100678.84;5035093;28;20385;-82
2022/09/08 01:47:19;;;;;;;11.43;6.30;;;;;;;15.95;100.00;100678.72;5034507;28;20069;-83
2022/09/08 01:49:44;;;;;;;9.20;6.10;;;;;;;15.95;100.00;100672.41;5015744;28;20036;-83
2022/09/08 01:52:10;;;;;;;13.17;6.50;;;;;;;15.97;100.00;100671.09;5034583;28;20057;-83
2022/09/08 01:54:35;;;;;;;12.57;6.60;;;;;;;16.00;100.00;100681.50;5034410;28;20115;-83
2022/09/08 01:57:01;;;;;;;12.00;7.37;;;;;;;16.00;100.00;100686.97;5034419;28;20040;-83
2022/09/08 01:59:26;;;;;;;13.00;7.00;;;;;;;15.99;100.00;100684.50;5035090;28;20073;-83
2022/09/08 02:01:52;;;;;;;12.87;6.80;;;;;;;16.00;100.00;100681.50;5015510;28;20029;-84
2022/09/08 02:04:18;;;;;;;11.60;6.50;;;;;;;16.01;100.00;100666.78;5034742;28;20041;-84
2022/09/08 02:06:43;;;;;;;12.90;7.50;;;;;;;16.10;100.00;100647.22;5034543;28;20081;-83
2022/09/08 02:09:43;;;;;;;12.77;7.17;;;;;;;16.09;100.00;100640.06;5034952;28;20134;-82
2022/09/08 02:12:08;;;;;;;13.30;6.80;;;;;;;16.01;100.00;100652.31;5033505;28;20041;-83
2022/09/08 02:14:33;;;;;;;10.57;6.03;;;;;;;16.04;100.00;100668.19;5035213;28;20795;-83
2022/09/08 02:16:59;;;;;;;11.13;5.03;;;;;;;15.97;100.00;100660.16;5034474;28;20043;-84
2022/09/08 02:19:24;;;;;;;11.57;5.30;;;;;;;15.97;100.00;100641.03;5034851;28;20207;-83
2022/09/08 02:21:50;;;;;;;13.87;5.60;;;;;;;16.00;100.00;100637.78;5034246;28;20048;-82
2022/09/08 02:24:15;;;;;;;9.73;4.73;;;;;;;15.95;100.00;100637.75;5000960;28;20048;-83
2022/09/08 02:26:40;;;;;;;11.40;5.33;;;;;;;15.93;100.00;100631.69;5038302;28;20044;-83
2022/09/08 02:29:09;;;;;;;11.90;5.60;;;;;;;15.91;100.00;100622.94;5038228;28;20040;-83
2022/09/08 02:31:35;;;;;;;10.83;5.20;;;;;;;15.87;100.00;100624.53;5038561;28;20037;-82
2022/09/08 02:34:01;;;;;;;8.63;4.73;;;;;;;15.91;100.00;100625.66;5037968;28;20057;-82
2022/09/08 02:36:27;;;;;;;9.70;4.87;;;;;;;16.02;100.00;100612.97;5037685;28;20127;-82
2022/09/08 02:38:54;;;;;;;12.40;5.37;;;;;;;15.97;100.00;100616.44;5038590;28;20037;-82
2022/09/08 02:41:21;;;;;;;11.40;5.53;;;;;;;15.90;100.00;100615.81;5020084;28;20497;-83
2022/09/08 02:43:46;;;;;;;13.47;6.00;;;;;;;15.94;100.00;100610.66;5038728;28;20056;-82
2022/09/08 02:46:12;;;;;;;11.17;5.70;;;;;;;15.98;100.00;100615.38;5038524;28;20052;-82
2022/09/08 02:48:38;;;;;;;12.83;5.63;;;;;;;15.92;100.00;100621.84;5038678;28;20567;-83
2022/09/08 02:51:06;;;;;;;11.73;5.20;;;;;;;15.89;100.00;100629.72;5037966;28;20033;-82
2022/09/08 02:53:32;;;;;;;11.67;5.60;;;;;;;15.90;100.00;100634.94;5021514;28;20060;-83
2022/09/08 02:55:58;;;;;;;8.73;5.57;;;;;;;15.88;100.00;100633.53;5038406;28;20163;-85
2022/09/08 02:58:24;;;;;;;9.47;5.60;;;;;;;15.85;100.00;100635.69;5037877;28;20033;-84
2022/09/08 03:00:50;;;;;;;11.10;5.27;;;;;;;15.85;100.00;100637.59;5038439;28;20045;-84
2022/09/08 03:03:16;;;;;;;8.60;5.10;;;;;;;15.84;100.00;100619.53;5037452;28;20041;-85
2022/09/08 03:05:41;;;;;;;8.43;4.30;;;;;;;15.79;100.00;100625.75;5037870;28;20120;-86
2022/09/08 03:08:08;;;;;;;6.93;3.80;;;;;;;15.82;100.00;100632.66;5037584;28;20136;-84
2022/09/08 03:10:34;;;;;;;8.60;3.83;;;;;;;15.85;100.00;100641.13;5037446;28;20064;-83
2022/09/08 03:13:00;;;;;;;8.93;4.37;;;;;;;15.83;100.00;100626.09;5037517;28;20228;-83
2022/09/08 03:15:27;;;;;;;10.30;4.70;;;;;;;15.85;100.00;100637.59;5019619;28;20033;-83
2022/09/08 03:17:53;;;;;;;11.80;4.77;;;;;;;15.84;100.00;100635.94;5018465;28;20090;-84
2022/09/08 03:20:20;;;;;;;9.67;4.40;;;;;;;15.79;100.00;100635.81;5037519;28;20033;-87
2022/09/08 03:22:45;;;;;;;9.33;4.67;;;;;;;15.74;100.00;100622.94;5016713;28;20439;-87
2022/09/08 03:25:11;;;;;;;10.07;4.50;;;;;;;15.77;100.00;100633.34;5037655;28;20068;-87
2022/09/08 03:27:36;;;;;;;12.80;5.17;;;;;;;15.78;100.00;100626.00;5037121;28;20481;-86
2022/09/08 03:30:07;;;;;;;12.20;5.30;;;;;;;15.75;100.00;100632.78;5037496;28;20045;-87
2022/09/08 03:32:34;;;;;;;11.93;5.10;;;;;;;15.76;100.00;100626.25;5036944;28;20416;-87
2022/09/08 03:35:00;;;;;;;9.37;5.00;;;;;;;15.77;100.00;100632.53;5018807;28;20032;-86
2022/09/08 03:37:26;;;;;;;9.37;5.40;;;;;;;15.75;100.00;100631.94;5020100;28;20048;-86
2022/09/08 03:39:52;;;;;;;10.47;5.50;;;;;;;15.74;100.00;100617.47;5037545;28;20049;-87
2022/09/08 03:42:17;;;;;;;13.83;5.80;;;;;;;15.73;100.00;100620.47;5037275;28;20043;-86
2022/09/08 03:44:44;;;;;;;13.40;5.43;;;;;;;15.76;100.00;100625.41;5037180;28;21432;-86
2022/09/08 03:47:46;;;;;;;12.03;5.67;;;;;;;15.76;100.00;100630.88;5036488;28;20401;-86
2022/09/08 03:50:14;;;;;;;7.17;5.20;;;;;;;15.77;100.00;100638.81;5037615;28;20643;-86
2022/09/08 03:52:40;;;;;;;14.53;5.83;;;;;;;15.80;100.00;100645.72;5037117;28;20044;-88
2022/09/08 03:55:06;;;;;;;13.17;6.03;;;;;;;15.77;100.00;100647.00;5036841;28;20650;-85
2022/09/08 03:57:31;;;;;;;12.57;6.80;;;;;;;15.78;100.00;100659.59;5036672;28;20043;-84
2022/09/08 03:59:58;;;;;;;12.23;5.70;;;;;;;15.81;100.00;100648.19;5034150;28;20028;-84
2022/09/08 04:02:26;;;;;;;11.77;6.00;;;;;;;15.75;100.00;100645.59;5036766;28;20037;-85
2022/09/08 04:04:53;;;;;;;13.97;6.10;;;;;;;15.69;100.00;100631.91;5037279;28;20036;-86
2022/09/08 04:07:21;;;;;;;10.13;5.23;;;;;;;15.67;100.00;100625.84;5036500;28;20623;-86
2022/09/08 04:09:46;;;;;;;13.70;5.57;;;;;;;15.59;100.00;100614.53;5037462;28;20783;-87
2022/09/08 04:12:12;;;;;;;10.17;5.23;;;;;;;15.56;100.00;100617.75;5018632;28;20106;-91
2022/09/08 04:14:39;;;;;;;11.43;4.87;;;;;;;15.50;100.00;100617.69;5038989;28;20115;-90
2022/09/08 04:17:05;;;;;;;11.47;5.30;;;;;;;15.48;100.00;100614.38;5037084;28;20628;-89
2022/09/08 04:19:30;;;;;;;12.63;5.50;;;;;;;15.46;100.00;100622.00;5036818;28;20037;-88
2022/09/08 04:21:56;;;;;;;10.30;4.73;;;;;;;15.47;100.00;100628.28;5034984;28;21455;-88
2022/09/08 04:24:21;;;;;;;9.80;5.13;;;;;;;15.47;100.00;100633.75;5036402;28;20048;-88
2022/09/08 04:26:47;;;;;;;10.73;5.30;;;;;;;15.39;100.00;100623.25;5035723;28;20047;-87
2022/09/08 04:29:13;;;;;;;10.30;5.27;;;;;;;15.44;100.00;100631.50;5034689;28;20060;-89
2022/09/08 04:31:38;;;;;;;8.40;5.00;;;;;;;15.36;100.00;100633.56;5035749;28;20033;-86
2022/09/08 04:34:05;;;;;;;9.73;5.50;;;;;;;15.38;100.00;100632.50;5032901;28;20554;-86
2022/09/08 04:36:30;;;;;;;12.77;5.50;;;;;;;15.40;100.00;100639.38;5035874;28;20044;-86
2022/09/08 04:38:58;;;;;;;11.07;5.67;;;;;;;15.40;100.00;100644.00;5016205;28;20048;-87
2022/09/08 04:41:25;;;;;;;11.43;5.30;;;;;;;15.36;100.00;100641.75;5035776;28;20370;-88
2022/09/08 04:43:51;;;;;;;12.30;5.23;;;;;;;15.36;100.00;100649.94;5036350;28;20055;-87
2022/09/08 04:46:17;;;;;;;8.77;5.30;;;;;;;15.39;100.00;100647.81;5035271;28;20041;-87
2022/09/08 04:48:44;;;;;;;12.10;5.57;;;;;;;15.36;100.00;100657.31;5015163;28;20389;-87
2022/09/08 04:51:12;;;;;;;11.50;5.90;;;;;;;15.36;100.00;100652.69;5017859;28;20036;-86
2022/09/08 04:53:38;;;;;;;12.03;5.87;;;;;;;15.34;100.00;100660.31;5035777;28;20059;-88
2022/09/08 04:56:05;;;;;;;12.27;5.40;;;;;;;15.34;100.00;100649.38;5035939;28;20040;-89
2022/09/08 04:58:35;;;;;;;9.83;5.30;;;;;;;15.32;100.00;100656.97;5014576;28;20037;-88
2022/09/08 05:01:09;;;;;;;13.00;5.67;;;;;;;15.33;100.00;100655.91;5035761;28;20094;-88
2022/09/08 05:03:34;;;;;;;12.50;6.03;;;;;;;15.30;100.00;100661.88;5022625;28;20059;-90
2022/09/08 05:06:08;;;;;;;8.97;5.20;;;;;;;15.31;100.00;100651.78;5016569;28;20485;-89
2022/09/08 05:08:34;;;;;;;10.35;5.30;;;;;;;15.30;100.00;100655.56;5035325;28;20577;-90
2022/09/08 05:11:00;;;;;;;15.70;5.73;;;;;;;15.30;100.00;100655.56;5035963;28;20037;-90
2022/09/08 05:13:26;;;;;;;11.73;5.70;;;;;;;15.29;100.00;100649.28;5017526;28;20096;-90
2022/09/08 05:15:51;;;;;;;10.60;5.10;;;;;;;15.25;100.00;100658.25;5035798;28;20190;-89
2022/09/08 05:18:16;;;;;;;11.07;5.43;;;;;;;15.28;100.00;100655.00;5035386;28;20033;-90
2022/09/08 05:20:42;;;;;;;12.90;5.97;;;;;;;15.28;100.00;100666.75;5035822;28;20534;-89
2022/09/08 05:23:07;;;;;;;13.13;6.60;;;;;;;15.29;100.00;100668.41;5016280;28;20477;-90
2022/09/08 05:25:32;;;;;;;14.87;7.27;;;;;;;15.29;100.00;100664.84;5016959;28;20062;-91
2022/09/08 05:27:58;;;;;;;15.90;7.07;;;;;;;15.28;100.00;100655.81;5001621;28;20045;-91
2022/09/08 05:30:23;;;;;;;18.10;8.03;;;;;;;15.27;100.00;100662.38;5035789;28;20320;-90
2022/09/08 05:32:48;;;;;;;15.33;7.70;;;;;;;15.30;100.00;100667.34;5035959;28;20036;-89
2022/09/08 05:35:14;;;;;;;15.03;7.80;;;;;;;15.31;100.00;100662.69;5017646;28;20487;-90
2022/09/08 05:37:39;;;;;;;17.10;7.80;;;;;;;15.33;100.00;100664.09;5015391;28;20075;-90
2022/09/08 05:40:05;;;;;;;15.97;7.93;;;;;;;15.35;100.00;100666.56;5018190;28;20159;-88
2022/09/08 05:42:31;;;;;;;17.33;9.20;;;;;;;15.33;100.00;100666.84;5035567;28;20041;-91
2022/09/08 05:44:56;;;;;;;17.07;8.83;;;;;;;15.33;100.00;100664.09;5016650;28;20487;-89
2022/09/08 05:47:21;;;;;;;20.90;9.10;;;;;;;15.33;100.00;100661.38;5035458;28;20044;-90
2022/09/08 05:49:47;;;;;;;17.70;9.17;;;;;;;15.33;100.00;100655.09;5015472;28;20600;-87
2022/09/08 05:52:12;;;;;;;16.73;8.97;;;;;;;15.32;100.00;100654.25;5034396;28;20084;-91
2022/09/08 05:54:38;;;;;;;15.77;8.93;;;;;;;15.36;100.00;100671.78;5035383;28;20043;-90
2022/09/08 05:57:04;;;;;;;18.40;9.33;;;;;;;15.39;100.00;100665.00;5034942;28;20540;-91
2022/09/08 05:59:29;;;;;;;16.07;9.13;;;;;;;15.34;100.00;100657.56;5034734;28;20047;-89
2022/09/08 06:01:55;;;;;;;17.43;9.57;;;;;;;15.36;100.00;100660.06;5017537;28;20900;-91
2022/09/08 06:04:20;;;;;;;18.90;9.80;;;;;;;15.34;100.00;100659.50;5016464;28;20037;-91
2022/09/08 06:07:22;;;;;;;18.60;9.97;;;;;;;15.38;100.00;100668.00;5018459;28;20555;-90
2022/09/08 06:09:48;;;;;;;16.80;8.93;;;;;;;15.39;100.00;100666.91;5013638;28;20036;-92
2022/09/08 06:12:13;;;;;;;16.17;9.47;;;;;;;15.39;100.00;100672.38;5036808;28;20528;-91
2022/09/08 06:14:38;;;;;;;17.80;9.23;;;;;;;15.39;100.00;100670.47;5018293;28;20091;-91
2022/09/08 06:17:06;;;;;;;17.87;9.80;;;;;;;15.39;100.00;100666.91;5036780;28;20055;-89
2022/09/08 06:19:31;;;;;;;16.97;9.70;;;;;;;15.38;100.00;100668.84;5035334;28;20041;-90
2022/09/08 06:21:57;;;;;;;18.80;9.10;;;;;;;15.35;100.00;100661.13;5035292;28;20124;-87
2022/09/08 06:24:22;;;;;;;16.93;10.13;;;;;;;15.36;100.00;100660.06;5034545;28;20370;-90
2022/09/08 06:26:58;;;;;;;15.40;9.33;;;;;;;15.35;100.00;100664.69;5020768;28;20045;-90
2022/09/08 06:29:23;;;;;;;17.47;9.37;;;;;;;15.36;100.00;100666.31;5033872;28;20461;-92
2022/09/08 06:32:00;;;;;;;15.07;9.13;;;;;;;15.41;100.00;100659.28;5036723;28;20049;-90
2022/09/08 06:34:42;;;;;;;15.37;9.63;;;;;;;15.39;100.00;100667.72;5036068;28;20037;-90
2022/09/08 06:37:27;;;;;;;17.40;9.97;;;;;;;15.40;100.00;100660.41;5036417;28;20626;-92
2022/09/08 06:40:05;;;;;;;16.07;9.87;;;;;;;15.43;100.00;100668.91;5038798;28;20409;-91
2022/09/08 06:42:49;;;;;;;18.67;10.90;;;;;;;15.43;100.00;100657.16;5032028;28;20037;-91
2022/09/08 06:45:42;;;;;;;17.58;10.88;;;;;;;15.47;100.00;100675.50;5034727;28;20079;-90
2022/09/08 06:48:11;;;;;;;20.70;11.20;;;;;;;15.49;100.00;100670.63;5033228;28;20036;-91
2022/09/08 06:50:41;;;;;;;18.40;11.03;;;;;;;15.46;100.00;100673.88;5034949;28;20149;-89
2022/09/08 06:53:15;;;;;;;18.93;11.70;;;;;;;15.42;100.00;100666.41;5015622;28;20544;-89
2022/09/08 06:55:54;;;;;;;20.23;12.33;;;;;;;15.38;100.00;100668.00;5015258;28;20545;-87
2022/09/08 06:58:31;;;;;;;21.07;12.40;;;;;;;15.46;100.00;100683.94;5030570;28;20276;-92
2022/09/08 07:01:09;;;;;;;19.10;12.20;;;;;;;15.48;100.00;100671.72;5013568;28;20385;-88
2022/09/08 07:03:45;;;;;;;19.83;12.10;;;;;;;15.56;100.00;100675.94;5034045;28;20036;-89
2022/09/08 07:06:10;;;;;;;19.03;12.47;;;;;;;15.61;100.00;100677.91;5034366;28;20120;-88
2022/09/08 07:08:51;;;;;;;20.60;12.60;;;;;;;15.60;100.00;100668.91;5034568;28;20594;-86
2022/09/08 07:11:32;;;;;;;20.57;13.23;;;;;;;15.60;100.00;100671.63;5034696;28;20709;-89
2022/09/08 07:14:11;;;;;;;21.07;12.97;;;;;;;15.63;100.00;100676.59;5035040;28;20122;-86
2022/09/08 07:16:46;;;;;;;18.30;11.80;;;;;;;15.70;100.00;100679.16;5037283;28;20043;-86
2022/09/08 07:19:23;;;;;;;18.60;12.68;;;;;;;15.77;100.00;100678.97;5023858;28;20064;-87
2022/09/08 07:22:02;;;;;;;17.57;11.70;;;;;;;15.72;100.00;100673.44;5016671;28;20052;-87
2022/09/08 07:24:36;;;;;;;19.87;11.63;;;;;;;15.78;100.00;100677.91;5014584;28;20572;-89
2022/09/08 07:27:05;;;;;;;20.20;12.13;;;;;;;15.79;100.00;100687.72;5037708;28;20040;-87
2022/09/08 07:29:45;;;;;;;19.40;12.37;;;;;;;15.85;100.00;100684.03;5036954;28;20609;-85
2022/09/08 07:32:27;;;;;;;19.93;12.90;;;;;;;15.85;100.00;100681.31;5036880;28;20143;-87
2022/09/08 07:34:57;;;;;;;20.00;12.63;;;;;;;15.93;100.00;100685.53;5036269;28;20029;-86
2022/09/08 07:37:42;;;;;;;22.00;13.90;;;;;;;16.02;100.00;100684.84;5037147;28;20785;-86
2022/09/08 07:40:25;;;;;;;23.10;13.05;;;;;;;16.03;100.00;100689.22;5016060;28;20531;-87
2022/09/08 07:42:56;;;;;;;20.58;12.38;;;;;;;16.11;100.00;100681.66;5037895;28;20373;-86
2022/09/08 07:45:33;;;;;;;20.47;13.33;;;;;;;16.13;100.00;100684.94;5037256;28;21475;-87
2022/09/08 07:48:10;;;;;;;21.70;12.93;;;;;;;16.25;100.00;100685.69;5033738;28;20781;-90
2022/09/08 07:50:54;;;;;;;20.43;14.30;;;;;;;16.27;100.00;100688.16;5017457;28;20024;-85
2022/09/08 07:53:44;;;;;;;18.85;12.57;;;;;;;16.31;100.00;100690.13;5037094;28;20436;-86
2022/09/08 07:56:18;;;;;;;23.90;13.20;;;;;;;16.34;100.00;100686.88;5035087;28;20037;-86
2022/09/08 07:59:14;;;;;;;19.63;12.17;;;;;;;16.35;100.00;100691.28;5036270;28;20116;-88
2022/09/08 08:02:23;;;;;;;19.37;12.40;;;;;;;16.36;100.00;100692.13;5036849;28;20043;-88
2022/09/08 08:04:50;;;;;;;17.73;12.27;;;;;;;16.37;100.00;100701.94;5000757;28;20484;-86
2022/09/08 08:07:24;;;;;;;17.67;12.23;;;;;;;16.40;100.00;100703.34;5037045;28;20128;-85
2022/09/08 08:10:03;;;;;;;20.10;12.60;;;;;;;16.50;100.00;100701.56;5035395;28;20529;-89
2022/09/08 08:12:32;;;;;;;19.47;13.33;;;;;;;16.66;100.00;100697.13;5016523;28;20119;-89
2022/09/08 08:15:06;;;;;;;18.47;13.00;;;;;;;16.82;100.00;100702.75;5036223;28;20120;-86
2022/09/08 08:17:42;;;;;;;16.17;9.90;;;;;;;16.75;100.00;100696.66;5034924;28;20694;-89
2022/09/08 08:20:21;;;;;;;14.13;10.27;;;;;;;16.78;100.00;100687.94;5035094;28;20029;-88
2022/09/08 08:22:59;;;;;;;16.50;11.00;;;;;;;16.99;100.00;100703.50;5036498;28;20045;-89
2022/09/08 08:25:28;;;;;;;16.90;11.40;;;;;;;17.20;100.00;100695.47;5036124;28;20131;-89
2022/09/08 08:27:54;;;;;;;14.83;10.70;;;;;;;17.45;100.00;100688.56;5036213;28;20057;-87
2022/09/08 08:30:22;;;;;;;13.87;9.40;;;;;;;17.45;100.00;100689.41;5036298;28;20036;-88
2022/09/08 08:32:53;;;;;;;10.03;7.60;;;;;;;17.46;100.00;100701.19;5037105;28;20052;-90
2022/09/08 08:35:40;;;;;;;9.37;6.67;;;;;;;17.42;98.92;100689.09;5036123;28;20378;-91
2022/09/08 08:38:12;;;;;;;13.33;7.80;;;;;;;17.44;98.80;100689.69;5035380;28;20119;-88
2022/09/08 08:40:52;;;;;;;11.37;7.67;;;;;;;17.74;98.51;100696.47;5036051;28;20136;-86
2022/09/08 08:43:44;;;;;;;11.37;8.00;;;;;;;18.05;98.04;100692.03;5035540;28;20041;-89
2022/09/08 08:46:19;;;;;;;10.13;7.60;;;;;;;18.21;93.42;100701.19;5035528;28;20087;-87
2022/09/08 08:49:08;;;;;;;10.40;7.17;;;;;;;18.34;91.12;100699.84;5035814;28;20043;-87
2022/09/08 08:52:01;;;;;;;9.90;6.37;;;;;;;18.52;89.44;100712.25;4987976;28;20065;-93
2022/09/08 08:54:38;;;;;;;8.18;6.45;;;;;;;18.75;88.05;100700.00;5035020;28;20060;-87
2022/09/08 08:57:25;;;;;;;8.33;5.77;;;;;;;18.88;87.80;100709.69;5035361;28;20354;-87
2022/09/08 09:00:18;;;;;;;10.25;5.90;;;;;;;19.23;86.48;100705.34;5034583;28;20611;-90
2022/09/08 09:03:15;;;;;;;5.80;4.88;;;;;;;19.26;82.20;100706.69;5035374;28;20689;-88
2022/09/08 09:05:44;;;;;;;7.63;4.13;;;;;;;19.13;79.63;100694.34;5030705;28;20033;-89
2022/09/08 09:08:35;;;;;;;8.27;4.13;;;;;;;18.97;82.21;100701.72;5035075;28;20591;-89
2022/09/08 09:11:35;;;;;;;6.20;3.67;;;;;;;19.28;82.64;100705.31;5035141;28;20041;-88
2022/09/08 09:14:19;;;;;;;6.55;3.88;;;;;;;19.08;80.23;100708.91;5034293;28;20056;-86
2022/09/08 09:17:08;;;;;;;4.15;3.47;;;;;;;19.00;81.80;100704.75;5035309;28;20071;-87
2022/09/08 09:19:51;;;;;;;6.55;3.55;;;;;;;18.87;79.93;100708.00;5034934;28;20474;-88
2022/09/08 09:22:38;;;;;;;5.40;3.20;;;;;;;18.94;80.43;100708.56;5035373;28;20126;-84
2022/09/08 09:25:18;;;;;;;5.82;3.47;;;;;;;18.69;81.14;100701.09;5035462;28;20033;-88
2022/09/08 09:28:22;;;;;;;9.52;4.38;;;;;;;18.64;82.48;100704.63;5034811;28;20692;-85
2022/09/08 09:31:05;;;;;;;8.07;3.70;;;;;;;18.41;82.29;100711.41;5010589;28;20137;-89
2022/09/08 09:34:17;;;;;;;6.72;3.65;;;;;;;18.22;82.70;100697.31;5034104;28;20485;-86
2022/09/08 09:36:55;;;;;;;7.67;3.90;;;;;;;18.16;84.73;100709.38;4997183;28;20091;-89
2022/09/08 09:39:46;;;;;;;6.43;3.70;;;;;;;18.22;85.70;100705.53;5033585;28;20035;-85
2022/09/08 09:42:49;;;;;;;5.20;3.50;;;;;;;18.16;85.29;100701.16;5035297;28;20124;-86
2022/09/08 09:45:46;;;;;;;4.90;3.20;;;;;;;18.12;85.93;100705.50;5034564;28;20969;-87
2022/09/08 09:48:29;;;;;;;5.60;3.33;;;;;;;18.05;86.38;100706.56;5034819;28;20082;-88
2022/09/08 09:51:28;;;;;;;8.07;3.77;;;;;;;18.08;85.69;100701.66;5035374;28;20068;-87
2022/09/08 09:54:16;;;;;;;6.57;3.50;;;;;;;18.15;86.66;100702.22;5024276;28;20626;-86
2022/09/08 09:56:47;;;;;;;6.90;4.00;;;;;;;18.22;85.36;100700.06;5034882;28;20568;-87
2022/09/08 09:59:35;;;;;;;8.30;3.77;;;;;;;18.29;86.25;100703.41;5013250;28;20432;-87
2022/09/08 10:02:25;;;;;;;6.43;3.20;;;;;;;18.43;85.80;100695.50;5034814;28;20119;-86
2022/09/08 10:05:27;;;;;;;6.53;2.57;;;;;;;18.66;80.89;100696.16;5033974;28;21730;-88
2022/09/08 10:08:16;;;;;;;5.25;2.40;;;;;;;18.69;81.16;100699.16;5034993;28;20699;-86
2022/09/08 10:10:41;;;;;;;5.50;2.30;;;;;;;18.63;81.73;100702.16;5034560;28;20071;-90
2022/09/08 10:13:12;;;;;;;5.33;1.87;;;;;;;19.00;77.14;100699.25;5034599;28;20049;-88
2022/09/08 10:15:49;;;;;;;3.63;1.95;;;;;;;19.08;77.58;100714.38;5034423;28;20481;-87
2022/09/08 10:18:48;;;;;;;6.50;2.22;;;;;;;19.12;76.99;100703.66;5034796;28;20029;-87
2022/09/08 10:21:53;;;;;;;6.10;2.10;;;;;;;19.09;73.96;100704.22;5014990;28;20029;-88
2022/09/08 10:24:52;;;;;;;6.30;2.05;;;;;;;19.14;75.04;100707.78;4995986;28;20055;-89
2022/09/08 10:27:43;;;;;;;5.53;2.10;;;;;;;19.12;76.53;100704.50;5034476;28;20029;-87
2022/09/08 10:30:44;;;;;;;6.45;2.17;;;;;;;19.41;76.35;100706.72;5034506;28;20047;-89
2022/09/08 10:33:27;;;;;;;7.22;2.10;;;;;;;19.49;75.05;100708.91;5034607;28;20051;-87
2022/09/08 10:36:06;;;;;;;6.03;2.23;;;;;;;19.50;74.07;100706.97;5033885;28;20029;-88
2022/09/08 10:38:55;;;;;;;6.97;2.00;;;;;;;19.60;74.02;100698.75;5034475;28;20292;-90
2022/09/08 10:41:56;;;;;;;6.18;2.28;;;;;;;19.78;73.92;100699.28;5033787;28;20037;-88
2022/09/08 10:44:39;;;;;;;6.80;1.90;;;;;;;19.63;69.31;100700.94;5036660;28;20432;-89
2022/09/08 10:47:32;;;;;;;7.38;2.10;;;;;;;19.55;71.93;100704.25;5038549;28;20048;-88
2022/09/08 10:50:17;;;;;;;6.10;1.98;;;;;;;19.67;73.14;100696.53;5037942;28;20033;-87
2022/09/08 10:52:50;;;;;;;7.63;2.50;;;;;;;19.73;72.48;100700.94;5037989;28;20049;-89
2022/09/08 10:55:36;;;;;;;6.38;2.00;;;;;;;19.84;71.63;100699.03;5038298;28;20548;-87
2022/09/08 10:58:41;;;;;;;5.22;1.90;;;;;;;19.90;71.69;100697.91;5038496;28;20040;-87
2022/09/08 11:01:25;;;;;;;7.13;2.10;;;;;;;20.06;70.75;100684.94;5037292;28;20122;-88
2022/09/08 11:04:32;;;;;;;5.72;2.30;;;;;;;20.59;67.69;100680.88;5038781;28;20055;-86
2022/09/08 11:07:18;;;;;;;6.88;2.15;;;;;;;20.87;65.86;100698.63;5008725;28;21201;-88
2022/09/08 11:10:06;;;;;;;7.00;1.92;;;;;;;20.97;65.00;100686.75;5037629;28;20112;-90
2022/09/08 11:12:46;;;;;;;6.53;1.77;;;;;;;20.96;65.63;100704.38;5038545;28;20160;-90
2022/09/08 11:15:24;;;;;;;6.13;2.00;;;;;;;20.86;63.84;100690.66;5037306;28;20066;-89
2022/09/08 11:17:51;;;;;;;6.53;2.13;;;;;;;20.74;64.21;100682.75;5036160;28;20077;-91
2022/09/08 11:20:43;;;;;;;7.13;2.30;;;;;;;20.49;66.48;100697.44;5018410;28;20075;-89
2022/09/08 11:23:20;;;;;;;4.50;1.92;;;;;;;20.31;66.78;100693.38;5037686;28;20120;-88
2022/09/08 11:25:58;;;;;;;7.18;1.90;;;;;;;20.36;67.89;100691.44;5036855;28;20043;-90
2022/09/08 11:28:49;;;;;;;4.90;2.10;;;;;;;20.60;67.62;100701.78;5037557;28;20429;-88
2022/09/08 11:31:28;;;;;;;8.82;2.58;;;;;;;20.36;67.26;100687.88;5037343;28;20039;-90
2022/09/08 11:34:12;;;;;;;4.15;2.13;;;;;;;20.10;66.98;100692.63;5037570;28;20072;-89
2022/09/08 11:37:12;;;;;;;8.35;2.40;;;;;;;20.28;67.89;100693.94;5034132;28;20401;-90
2022/09/08 11:40:34;;;;;;;4.97;1.90;;;;;;;20.64;67.61;100686.34;5037486;28;20037;-89
2022/09/08 11:43:29;;;;;;;8.88;2.20;;;;;;;20.95;65.95;100682.63;4954997;28;20042;-89
2022/09/08 11:46:20;;;;;;;6.43;2.40;;;;;;;21.06;64.47;100678.69;4955464;28;20045;-91
2022/09/08 11:49:15;;;;;;;10.38;2.50;;;;;;;21.00;64.63;100677.91;5022522;28;20179;-88
2022/09/08 11:51:53;;;;;;;7.53;2.20;;;;;;;20.89;63.97;100679.91;5037831;28;20469;-86
2022/09/08 11:54:49;;;;;;;5.88;1.95;;;;;;;20.91;63.64;100676.84;5036560;28;20067;-89
2022/09/08 11:57:21;;;;;;;7.05;2.10;;;;;;;20.73;65.13;100670.09;5037458;28;20056;-85